Time;durP1;ratioP1;P1;durP2;ratioP2;P2;SDS_P1;SDS_P2;PMS_P1;PMS_P2;Temp;Humidity;BMP_temperature;BMP_pressure;BME280_temperature;BME280_humidity;BME280_pressure;Samples;Min_cycle;Max_cycle;Signal;HPM_P1;HPM_P2
2024/01/28 00:00:11;;;;;;;;;34.75;33.75;;;;;;;;5060884;28;45213;-79
2024/01/28 00:02:36;;;;;;;;;30.50;30.00;;;;;;;;5060504;28;45490;-79
2024/01/28 00:05:01;;;;;;;;;38.25;34.75;;;;;;;;5060200;28;45325;-80
2024/01/28 00:07:27;;;;;;;;;33.25;30.00;;;;;;;;5061163;28;45506;-79
2024/01/28 00:09:52;;;;;;;;;28.25;26.75;;;;;;;;5060853;28;45477;-79
2024/01/28 00:12:17;;;;;;;;;25.50;25.50;;;;;;;;5042097;28;45867;-79
2024/01/28 00:14:42;;;;;;;;;23.00;20.50;;;;;;;;5060606;28;45323;-79
2024/01/28 00:17:07;;;;;;;;;28.75;25.50;;;;;;;;5060860;28;45466;-79
2024/01/28 00:19:33;;;;;;;;;27.25;23.50;;;;;;;;5042062;28;47581;-79
2024/01/28 00:21:58;;;;;;;;;26.00;23.00;;;;;;;;5043119;28;45198;-79
2024/01/28 00:24:23;;;;;;;;;21.75;20.50;;;;;;;;5061071;28;45291;-79
2024/01/28 00:26:49;;;;;;;;;23.25;22.00;;;;;;;;5060218;28;45419;-79
2024/01/28 00:29:14;;;;;;;;;35.25;34.50;;;;;;;;5059985;28;46165;-79
2024/01/28 00:31:39;;;;;;;;;45.75;39.00;;;;;;;;5060355;28;45511;-79
2024/01/28 00:34:05;;;;;;;;;50.25;41.50;;;;;;;;5041865;28;45351;-79
2024/01/28 00:36:30;;;;;;;;;56.50;47.25;;;;;;;;5041781;28;46288;-79
2024/01/28 00:38:56;;;;;;;;;56.00;46.00;;;;;;;;5059294;28;46424;-80
2024/01/28 00:41:26;;;;;;;;;46.25;40.00;;;;;;;;5041424;28;45943;-79
2024/01/28 00:43:52;;;;;;;;;36.75;35.75;;;;;;;;5060085;28;45177;-79
2024/01/28 00:46:17;;;;;;;;;27.00;26.00;;;;;;;;5060751;28;45233;-79
2024/01/28 00:48:43;;;;;;;;;21.25;18.25;;;;;;;;5042470;28;47872;-79
2024/01/28 00:51:08;;;;;;;;;20.00;18.00;;;;;;;;5060818;28;45752;-79
2024/01/28 00:53:33;;;;;;;;;22.75;19.50;;;;;;;;5042877;28;45962;-79
2024/01/28 00:55:58;;;;;;;;;18.75;18.75;;;;;;;;5060348;28;45526;-79
2024/01/28 00:58:23;;;;;;;;;21.00;19.67;;;;;;;;5060482;28;46310;-79
2024/01/28 01:00:49;;;;;;;;;19.50;18.25;;;;;;;;5059645;28;45322;-79
2024/01/28 01:03:14;;;;;;;;;20.00;15.67;;;;;;;;5041362;28;45398;-79
2024/01/28 01:05:41;;;;;;;;;15.75;15.00;;;;;;;;5041030;28;45902;-79
2024/01/28 01:08:07;;;;;;;;;21.33;18.33;;;;;;;;5041331;28;47316;-79
2024/01/28 01:10:32;;;;;;;;;19.33;19.33;;;;;;;;5060387;28;45221;-79
2024/01/28 01:12:57;;;;;;;;;37.50;36.75;;;;;;;;5042661;28;45580;-79
2024/01/28 01:15:23;;;;;;;;;42.50;38.25;;;;;;;;5059867;28;45243;-79
2024/01/28 01:17:50;;;;;;;;;42.25;37.00;;;;;;;;5058967;28;45529;-79
2024/01/28 01:20:17;;;;;;;;;37.75;36.75;;;;;;;;5040342;28;45224;-80
2024/01/28 01:22:42;;;;;;;;;34.75;34.50;;;;;;;;5060673;28;45267;-79
2024/01/28 01:25:08;;;;;;;;;30.50;27.00;;;;;;;;5042349;28;47247;-79
2024/01/28 01:27:33;;;;;;;;;38.50;37.75;;;;;;;;5060833;28;45230;-79
2024/01/28 01:29:58;;;;;;;;;40.75;37.00;;;;;;;;5044592;28;45318;-80
2024/01/28 01:32:23;;;;;;;;;30.75;30.75;;;;;;;;5045235;28;45497;-79
2024/01/28 01:34:48;;;;;;;;;34.75;29.75;;;;;;;;5063694;28;45352;-79
2024/01/28 01:37:13;;;;;;;;;37.25;30.25;;;;;;;;5045595;28;48425;-79
2024/01/28 01:39:39;;;;;;;;;30.00;24.75;;;;;;;;5062628;28;45263;-79
2024/01/28 01:42:04;;;;;;;;;28.50;27.50;;;;;;;;5044511;28;45330;-79
2024/01/28 01:44:29;;;;;;;;;25.25;24.00;;;;;;;;5062514;28;45304;-80
2024/01/28 01:46:55;;;;;;;;;20.50;18.25;;;;;;;;5062446;28;45633;-79
2024/01/28 01:49:20;;;;;;;;;21.75;20.75;;;;;;;;5043510;28;46261;-79
2024/01/28 01:51:45;;;;;;;;;22.00;19.50;;;;;;;;5061562;28;45276;-79
2024/01/28 01:54:10;;;;;;;;;17.75;17.75;;;;;;;;5043200;28;46469;-79
2024/01/28 01:56:37;;;;;;;;;19.50;18.00;;;;;;;;5061645;28;46466;-79
2024/01/28 01:59:03;;;;;;;;;20.33;18.67;;;;;;;;5061812;28;45334;-79
2024/01/28 02:01:29;;;;;;;;;20.67;19.00;;;;;;;;5043565;28;45299;-79
2024/01/28 02:03:55;;;;;;;;;16.00;15.67;;;;;;;;5043166;28;47640;-79
2024/01/28 02:06:20;;;;;;;;;17.67;16.00;;;;;;;;5061726;28;47173;-79
2024/01/28 02:08:46;;;;;;;;;16.33;15.00;;;;;;;;5061593;28;45279;-79
2024/01/28 02:11:11;;;;;;;;;16.75;15.75;;;;;;;;5061916;28;45328;-79
2024/01/28 02:13:37;;;;;;;;;7.33;6.00;;;;;;;;5061513;28;45319;-79
2024/01/28 02:16:02;;;;;;;;;18.67;16.67;;;;;;;;5061711;28;45172;-79
2024/01/28 02:18:27;;;;;;;;;12.33;9.67;;;;;;;;5043303;28;45591;-79
2024/01/28 02:20:53;;;;;;;;;17.67;17.33;;;;;;;;5044104;28;45276;-79
2024/01/28 02:23:21;;;;;;;;;12.33;11.00;;;;;;;;5042892;28;46059;-79
2024/01/28 02:25:46;;;;;;;;;13.00;12.67;;;;;;;;5061202;28;45908;-79
2024/01/28 02:28:11;;;;;;;;;18.00;16.50;;;;;;;;5060931;28;45326;-79
2024/01/28 02:30:36;;;;;;;;;14.75;14.25;;;;;;;;5061450;28;45298;-79
2024/01/28 02:33:02;;;;;;;;;20.00;19.75;;;;;;;;5061089;28;45599;-79
2024/01/28 02:35:27;;;;;;;;;19.33;16.00;;;;;;;;5042274;28;48192;-79
2024/01/28 02:37:52;;;;;;;;;15.00;15.00;;;;;;;;5043014;28;45319;-80
2024/01/28 02:40:18;;;;;;;;;15.00;14.00;;;;;;;;5042208;28;45256;-79
2024/01/28 02:42:43;;;;;;;;;15.75;15.50;;;;;;;;5042751;28;46009;-79
2024/01/28 02:45:09;;;;;;;;;17.67;16.33;;;;;;;;5042892;28;48159;-79
2024/01/28 02:47:34;;;;;;;;;19.67;15.67;;;;;;;;5061039;28;45323;-78
2024/01/28 02:49:59;;;;;;;;;15.50;15.50;;;;;;;;5060769;28;45518;-79
2024/01/28 02:52:24;;;;;;;;;17.33;16.00;;;;;;;;5060840;28;45325;-79
2024/01/28 02:54:49;;;;;;;;;18.00;16.00;;;;;;;;5060554;28;45323;-79
2024/01/28 02:57:14;;;;;;;;;19.50;15.75;;;;;;;;5060609;28;45449;-79
2024/01/28 02:59:40;;;;;;;;;18.25;16.75;;;;;;;;5060759;28;45481;-79
2024/01/28 03:02:05;;;;;;;;;15.67;14.00;;;;;;;;5042592;28;45894;-79
2024/01/28 03:04:35;;;;;;;;;14.67;13.00;;;;;;;;5060312;28;45577;-80
2024/01/28 03:07:00;;;;;;;;;17.33;16.00;;;;;;;;5042293;28;45367;-79
2024/01/28 03:09:26;;;;;;;;;14.00;14.00;;;;;;;;5042689;28;45461;-80
2024/01/28 03:11:51;;;;;;;;;12.00;11.00;;;;;;;;5061448;28;45349;-79
2024/01/28 03:14:16;;;;;;;;;18.33;15.00;;;;;;;;5060773;28;45536;-80
2024/01/28 03:16:42;;;;;;;;;12.00;12.00;;;;;;;;5061419;28;45277;-80
2024/01/28 03:19:07;;;;;;;;;16.25;15.25;;;;;;;;5062163;28;45619;-80
2024/01/28 03:21:32;;;;;;;;;12.00;12.00;;;;;;;;5062214;28;45460;-80
2024/01/28 03:23:57;;;;;;;;;16.00;13.33;;;;;;;;5043882;28;47189;-80
2024/01/28 03:26:22;;;;;;;;;17.67;14.00;;;;;;;;5062448;28;45407;-80
2024/01/28 03:28:47;;;;;;;;;12.00;12.00;;;;;;;;5062165;28;45315;-80
2024/01/28 03:31:13;;;;;;;;;14.00;12.00;;;;;;;;5043639;28;47249;-80
2024/01/28 03:33:38;;;;;;;;;13.00;12.33;;;;;;;;5061100;28;46402;-79
2024/01/28 03:36:03;;;;;;;;;11.00;11.00;;;;;;;;5061764;28;45242;-80
2024/01/28 03:38:29;;;;;;;;;14.67;10.67;;;;;;;;5043433;28;45269;-80
2024/01/28 03:40:54;;;;;;;;;11.00;11.00;;;;;;;;5061424;28;45449;-81
2024/01/28 03:43:19;;;;;;;;;11.33;11.33;;;;;;;;5042867;28;47971;-79
2024/01/28 03:45:44;;;;;;;;;13.33;10.67;;;;;;;;5042854;28;45261;-80
2024/01/28 03:48:09;;;;;;;;;13.00;10.67;;;;;;;;5042570;28;45234;-79
2024/01/28 03:50:35;;;;;;;;;10.33;10.33;;;;;;;;5042174;28;46107;-80
2024/01/28 03:53:00;;;;;;;;;13.00;10.67;;;;;;;;5060010;28;45450;-79
2024/01/28 03:55:25;;;;;;;;;12.33;11.00;;;;;;;;5059761;28;45372;-79
2024/01/28 03:57:50;;;;;;;;;10.00;9.67;;;;;;;;5041782;28;45333;-80
2024/01/28 04:00:18;;;;;;;;;6.00;6.00;;;;;;;;5059922;28;45511;-80
2024/01/28 04:02:43;;;;;;;;;8.33;8.00;;;;;;;;5041630;28;48141;-79
2024/01/28 04:05:08;;;;;;;;;10.00;10.00;;;;;;;;5059376;28;45319;-80
2024/01/28 04:07:33;;;;;;;;;13.00;11.00;;;;;;;;5041935;28;45280;-80
2024/01/28 04:09:59;;;;;;;;;10.67;10.33;;;;;;;;5059814;28;45616;-80
2024/01/28 04:12:24;;;;;;;;;12.67;11.00;;;;;;;;5059931;28;45406;-80
2024/01/28 04:14:49;;;;;;;;;13.00;12.33;;;;;;;;5059652;28;45334;-79
2024/01/28 04:17:14;;;;;;;;;11.00;11.00;;;;;;;;5059848;28;45304;-79
2024/01/28 04:19:39;;;;;;;;;13.33;11.00;;;;;;;;5041297;28;46969;-79
2024/01/28 04:22:06;;;;;;;;;10.67;10.67;;;;;;;;5059549;28;45511;-80
2024/01/28 04:24:32;;;;;;;;;14.67;12.00;;;;;;;;5059860;28;45269;-79
2024/01/28 04:26:57;;;;;;;;;11.00;9.67;;;;;;;;5041616;28;45261;-79
2024/01/28 04:29:23;;;;;;;;;12.67;11.00;;;;;;;;5041186;28;46894;-79
2024/01/28 04:31:48;;;;;;;;;12.33;11.00;;;;;;;;5041210;28;46888;-79
2024/01/28 04:34:13;;;;;;;;;11.33;10.67;;;;;;;;5059180;28;45371;-80
2024/01/28 04:36:39;;;;;;;;;10.33;10.33;;;;;;;;5059535;28;45264;-80
2024/01/28 04:39:05;;;;;;;;;10.00;8.00;;;;;;;;5059331;28;45287;-79
2024/01/28 04:41:30;;;;;;;;;12.00;10.00;;;;;;;;5041165;28;47626;-80
2024/01/28 04:43:55;;;;;;;;;11.00;10.67;;;;;;;;5059422;28;45209;-79
2024/01/28 04:46:21;;;;;;;;;11.00;11.00;;;;;;;;5059591;28;45370;-79
2024/01/28 04:48:46;;;;;;;;;11.67;11.00;;;;;;;;5058786;28;45581;-79
2024/01/28 04:51:11;;;;;;;;;7.00;7.00;;;;;;;;5041177;28;47280;-79
2024/01/28 04:53:36;;;;;;;;;17.00;12.67;;;;;;;;5059242;28;45275;-80
2024/01/28 04:56:01;;;;;;;;;12.67;10.67;;;;;;;;5040802;28;45311;-80
2024/01/28 04:58:27;;;;;;;;;11.00;11.00;;;;;;;;5040765;28;47154;-79
2024/01/28 05:00:52;;;;;;;;;11.33;8.67;;;;;;;;5040732;28;47251;-80
2024/01/28 05:03:17;;;;;;;;;12.33;11.67;;;;;;;;5059009;28;45219;-79
2024/01/28 05:05:42;;;;;;;;;11.67;9.00;;;;;;;;5062582;28;45231;-79
2024/01/28 05:08:07;;;;;;;;;8.00;8.00;;;;;;;;5062657;28;45251;-80
2024/01/28 05:10:33;;;;;;;;;11.00;10.33;;;;;;;;5044342;28;47057;-79
2024/01/28 05:12:58;;;;;;;;;11.33;10.33;;;;;;;;5062464;28;45426;-80
2024/01/28 05:15:23;;;;;;;;;7.33;7.00;;;;;;;;5044395;28;45248;-80
2024/01/28 05:17:48;;;;;;;;;13.00;12.67;;;;;;;;5062337;28;45692;-79
2024/01/28 05:20:14;;;;;;;;;14.33;12.00;;;;;;;;5043944;28;47269;-80
2024/01/28 05:22:40;;;;;;;;;9.33;9.33;;;;;;;;5062139;28;45459;-79
2024/01/28 05:25:05;;;;;;;;;16.67;12.67;;;;;;;;5062248;28;45352;-79
2024/01/28 05:27:31;;;;;;;;;10.00;7.33;;;;;;;;5044231;28;46098;-80
2024/01/28 05:29:58;;;;;;;;;12.00;10.67;;;;;;;;5062482;28;45625;-80
2024/01/28 05:32:23;;;;;;;;;11.67;11.00;;;;;;;;5062046;28;45321;-79
2024/01/28 05:34:48;;;;;;;;;13.00;13.00;;;;;;;;5061865;28;45335;-80
2024/01/28 05:37:15;;;;;;;;;12.33;12.33;;;;;;;;5043845;28;46130;-79
2024/01/28 05:39:40;;;;;;;;;10.33;10.33;;;;;;;;5062185;28;45360;-79
2024/01/28 05:42:06;;;;;;;;;12.67;11.33;;;;;;;;5062072;28;45177;-79
2024/01/28 05:44:31;;;;;;;;;12.00;11.67;;;;;;;;5062507;28;45243;-79
2024/01/28 05:46:56;;;;;;;;;12.00;12.00;;;;;;;;5062158;28;45530;-79
2024/01/28 05:49:21;;;;;;;;;12.33;11.00;;;;;;;;5061998;28;46432;-79
2024/01/28 05:51:46;;;;;;;;;9.67;9.67;;;;;;;;5062365;28;45154;-79
2024/01/28 05:54:11;;;;;;;;;10.33;8.67;;;;;;;;5043917;28;45314;-80
2024/01/28 05:56:37;;;;;;;;;12.00;11.67;;;;;;;;5061984;28;45310;-79
2024/01/28 05:59:02;;;;;;;;;9.33;8.33;;;;;;;;5061876;28;45555;-79
2024/01/28 06:01:27;;;;;;;;;9.33;8.00;;;;;;;;5062079;28;45209;-79
2024/01/28 06:03:52;;;;;;;;;9.33;9.33;;;;;;;;5062089;28;45205;-80
2024/01/28 06:06:17;;;;;;;;;18.33;15.00;;;;;;;;5044005;28;46117;-80
2024/01/28 06:08:43;;;;;;;;;13.33;11.00;;;;;;;;5044648;28;48145;-79
2024/01/28 06:11:09;;;;;;;;;10.67;8.67;;;;;;;;5063678;28;45246;-80
2024/01/28 06:13:34;;;;;;;;;12.00;11.00;;;;;;;;5063641;28;45591;-79
2024/01/28 06:15:59;;;;;;;;;14.33;12.33;;;;;;;;5062180;28;45311;-80
2024/01/28 06:18:24;;;;;;;;;12.33;11.67;;;;;;;;5061854;28;45284;-79
2024/01/28 06:20:49;;;;;;;;;12.67;10.33;;;;;;;;5043482;28;45264;-79
2024/01/28 06:23:15;;;;;;;;;12.33;11.33;;;;;;;;5062045;28;45335;-80
2024/01/28 06:25:40;;;;;;;;;15.00;12.67;;;;;;;;5061639;28;45576;-79
2024/01/28 06:28:05;;;;;;;;;12.00;12.00;;;;;;;;5061627;28;45339;-79
2024/01/28 06:30:32;;;;;;;;;12.00;11.00;;;;;;;;5061654;28;45292;-79
2024/01/28 06:32:57;;;;;;;;;10.67;10.00;;;;;;;;5062303;28;45304;-79
2024/01/28 06:35:22;;;;;;;;;9.33;9.33;;;;;;;;5043815;28;47154;-79
2024/01/28 06:37:47;;;;;;;;;12.33;11.00;;;;;;;;5062113;28;45353;-79
2024/01/28 06:40:13;;;;;;;;;12.33;12.00;;;;;;;;5043435;28;45319;-80
2024/01/28 06:42:38;;;;;;;;;13.67;12.67;;;;;;;;5023830;28;45533;-80
2024/01/28 06:45:03;;;;;;;;;12.33;11.33;;;;;;;;5041342;28;45364;-80
2024/01/28 06:47:28;;;;;;;;;11.33;10.00;;;;;;;;5023049;28;48161;-79
2024/01/28 06:49:54;;;;;;;;;10.67;10.00;;;;;;;;5022545;28;45502;-79
2024/01/28 06:52:19;;;;;;;;;12.33;12.33;;;;;;;;5041125;28;45596;-79
2024/01/28 06:54:44;;;;;;;;;13.33;12.33;;;;;;;;5022424;28;46192;-79
2024/01/28 06:57:09;;;;;;;;;10.33;9.00;;;;;;;;5046776;28;45242;-80
2024/01/28 06:59:34;;;;;;;;;7.00;6.67;;;;;;;;5042685;28;46008;-79
2024/01/28 07:02:00;;;;;;;;;10.00;9.67;;;;;;;;5060967;28;45313;-79
2024/01/28 07:04:25;;;;;;;;;8.00;8.00;;;;;;;;5060476;28;45252;-79
2024/01/28 07:06:50;;;;;;;;;14.33;11.67;;;;;;;;5060701;28;45303;-79
2024/01/28 07:09:17;;;;;;;;;12.67;12.67;;;;;;;;5042345;28;45838;-80
2024/01/28 07:11:43;;;;;;;;;10.33;10.33;;;;;;;;5060975;28;45288;-80
2024/01/28 07:14:08;;;;;;;;;10.00;10.00;;;;;;;;5042151;28;46967;-79
2024/01/28 07:16:34;;;;;;;;;10.00;9.00;;;;;;;;5042461;28;47151;-78
2024/01/28 07:19:00;;;;;;;;;9.00;8.00;;;;;;;;5060610;28;45260;-79
2024/01/28 07:21:25;;;;;;;;;10.33;9.33;;;;;;;;5061487;28;45266;-79
2024/01/28 07:23:51;;;;;;;;;16.33;13.33;;;;;;;;5061047;28;45439;-79
2024/01/28 07:26:17;;;;;;;;;16.00;12.33;;;;;;;;5043007;28;47208;-78
2024/01/28 07:28:42;;;;;;;;;14.33;13.00;;;;;;;;5061892;28;45244;-78
2024/01/28 07:31:09;;;;;;;;;13.33;12.67;;;;;;;;5061806;28;45288;-78
2024/01/28 07:33:34;;;;;;;;;15.67;12.00;;;;;;;;5060120;28;45775;-79
2024/01/28 07:36:00;;;;;;;;;15.67;15.67;;;;;;;;5060118;28;46292;-78
2024/01/28 07:38:25;;;;;;;;;11.33;11.33;;;;;;;;5060542;28;45356;-78
2024/01/28 07:40:50;;;;;;;;;15.67;14.67;;;;;;;;5043117;28;45357;-78
2024/01/28 07:43:15;;;;;;;;;11.67;10.33;;;;;;;;5060673;28;45521;-79
2024/01/28 07:45:42;;;;;;;;;16.67;15.33;;;;;;;;5067432;28;45303;-79
2024/01/28 07:48:07;;;;;;;;;13.33;11.00;;;;;;;;5071754;28;45225;-79
2024/01/28 07:50:32;;;;;;;;;17.33;15.33;;;;;;;;5071669;27;45419;-79
2024/01/28 07:52:58;;;;;;;;;15.67;15.33;;;;;;;;5047430;28;46113;-78
2024/01/28 07:55:24;;;;;;;;;19.33;15.00;;;;;;;;5060613;28;46479;-79
2024/01/28 07:57:49;;;;;;;;;18.33;13.67;;;;;;;;5047910;28;45329;-79
2024/01/28 08:00:14;;;;;;;;;13.67;13.67;;;;;;;;5039987;28;45458;-80
2024/01/28 08:02:39;;;;;;;;;15.67;14.33;;;;;;;;5022505;28;46114;-80
2024/01/28 08:05:05;;;;;;;;;18.00;16.00;;;;;;;;5021538;28;48392;-79
2024/01/28 08:07:31;;;;;;;;;15.67;13.00;;;;;;;;5039869;28;45301;-79
2024/01/28 08:09:56;;;;;;;;;16.67;13.67;;;;;;;;5040520;28;45377;-79
2024/01/28 08:12:21;;;;;;;;;16.00;13.00;;;;;;;;5022007;28;47066;-80
2024/01/28 08:14:46;;;;;;;;;17.00;16.33;;;;;;;;5039718;28;45433;-81
2024/01/28 08:17:11;;;;;;;;;13.00;12.00;;;;;;;;5022449;28;45229;-80
2024/01/28 08:19:38;;;;;;;;;13.67;12.67;;;;;;;;5021221;28;45528;-79
2024/01/28 08:22:04;;;;;;;;;12.67;12.67;;;;;;;;5027315;28;46879;-77
2024/01/28 08:24:29;;;;;;;;;13.33;13.33;;;;;;;;5050367;28;47411;-79
2024/01/28 08:26:55;;;;;;;;;14.33;14.33;;;;;;;;5061353;28;45354;-78
2024/01/28 08:29:20;;;;;;;;;13.33;12.67;;;;;;;;5079863;28;45632;-78
2024/01/28 08:31:45;;;;;;;;;16.33;14.67;;;;;;;;5079874;28;45209;-79
2024/01/28 08:34:10;;;;;;;;;15.00;12.00;;;;;;;;5079030;28;45316;-78
2024/01/28 08:36:35;;;;;;;;;13.33;9.67;;;;;;;;5079772;28;45286;-78
2024/01/28 08:39:03;;;;;;;;;11.67;9.00;;;;;;;;5062352;28;45364;-78
2024/01/28 08:41:29;;;;;;;;;13.00;11.33;;;;;;;;5065117;28;46296;-79
2024/01/28 08:43:54;;;;;;;;;12.00;12.00;;;;;;;;5083303;28;46252;-77
2024/01/28 08:46:20;;;;;;;;;13.67;11.00;;;;;;;;5083133;28;45507;-78
2024/01/28 08:48:45;;;;;;;;;12.00;12.00;;;;;;;;5064805;28;45799;-78
2024/01/28 08:51:10;;;;;;;;;13.00;13.00;;;;;;;;5083174;28;45355;-79
2024/01/28 08:53:35;;;;;;;;;11.00;9.33;;;;;;;;5083050;28;45323;-78
2024/01/28 08:56:00;;;;;;;;;13.33;13.33;;;;;;;;5064352;28;45382;-79
2024/01/28 08:58:26;;;;;;;;;14.00;11.33;;;;;;;;5049074;28;45185;-78
2024/01/28 09:00:51;;;;;;;;;18.00;14.67;;;;;;;;5042421;28;45476;-79
2024/01/28 09:03:16;;;;;;;;;17.67;16.33;;;;;;;;5051420;28;45928;-78
2024/01/28 09:05:42;;;;;;;;;14.33;12.33;;;;;;;;5044276;28;45839;-79
2024/01/28 09:08:07;;;;;;;;;19.00;16.33;;;;;;;;5062357;28;45327;-78
2024/01/28 09:10:32;;;;;;;;;15.67;15.00;;;;;;;;5051324;28;45974;-79
2024/01/28 09:12:58;;;;;;;;;20.00;20.00;;;;;;;;5072051;28;45397;-78
2024/01/28 09:15:23;;;;;;;;;29.50;28.75;;;;;;;;5079213;27;45519;-78
2024/01/28 09:17:48;;;;;;;;;19.33;15.00;;;;;;;;5080381;27;45319;-79
2024/01/28 09:20:14;;;;;;;;;27.00;24.67;;;;;;;;5075097;28;45399;-79
2024/01/28 09:22:39;;;;;;;;;29.00;27.75;;;;;;;;5058070;28;48112;-80
2024/01/28 09:25:04;;;;;;;;;16.67;14.33;;;;;;;;5082012;28;45323;-80
2024/01/28 09:27:30;;;;;;;;;15.33;15.33;;;;;;;;5082036;28;45367;-79
2024/01/28 09:29:55;;;;;;;;;14.00;14.00;;;;;;;;5064027;28;45619;-79
2024/01/28 09:32:20;;;;;;;;;12.00;11.67;;;;;;;;5059123;28;46181;-79
2024/01/28 09:34:46;;;;;;;;;15.00;14.67;;;;;;;;5062359;28;45318;-80
2024/01/28 09:37:11;;;;;;;;;19.00;16.00;;;;;;;;5062163;28;45525;-80
2024/01/28 09:39:36;;;;;;;;;13.67;12.67;;;;;;;;5062483;28;45425;-81
2024/01/28 09:42:10;;;;;;;;;16.67;14.67;;;;;;;;5046684;28;47517;-80
2024/01/28 09:44:36;;;;;;;;;18.33;17.00;;;;;;;;5061512;28;45438;-79
2024/01/28 09:47:01;;;;;;;;;19.00;16.67;;;;;;;;5042755;28;45324;-80
2024/01/28 09:49:30;;;;;;;;;15.67;15.00;;;;;;;;5042996;28;45988;-80
2024/01/28 09:51:56;;;;;;;;;16.00;16.00;;;;;;;;5051655;28;45671;-78
2024/01/28 09:54:21;;;;;;;;;15.00;15.00;;;;;;;;5046141;28;45465;-80
2024/01/28 09:56:47;;;;;;;;;18.33;16.00;;;;;;;;5053768;28;45386;-78
2024/01/28 09:59:13;;;;;;;;;20.00;17.67;;;;;;;;5061097;28;45426;-79
2024/01/28 10:01:41;;;;;;;;;16.33;15.67;;;;;;;;5059662;28;45311;-79
2024/01/28 10:04:07;;;;;;;;;18.67;15.67;;;;;;;;5065116;28;45410;-79
2024/01/28 10:06:32;;;;;;;;;17.00;13.67;;;;;;;;5069579;28;45565;-80
2024/01/28 10:08:58;;;;;;;;;15.67;15.67;;;;;;;;5070256;28;45371;-79
2024/01/28 10:11:23;;;;;;;;;13.00;12.00;;;;;;;;5053031;28;47709;-79
2024/01/28 10:13:48;;;;;;;;;9.67;8.67;;;;;;;;5050950;28;45817;-80
2024/01/28 10:16:13;;;;;;;;;17.00;13.00;;;;;;;;5070233;27;45531;-79
2024/01/28 10:18:38;;;;;;;;;11.00;10.33;;;;;;;;5051060;27;45880;-79
2024/01/28 10:21:04;;;;;;;;;13.00;12.67;;;;;;;;5051741;28;48057;-78
2024/01/28 10:23:29;;;;;;;;;16.33;13.33;;;;;;;;5057578;28;45395;-78
2024/01/28 10:26:00;;;;;;;;;13.33;13.00;;;;;;;;5039982;28;45966;-78
2024/01/28 10:28:28;;;;;;;;;15.33;14.00;;;;;;;;5059347;28;45396;-79
2024/01/28 10:30:54;;;;;;;;;14.00;14.00;;;;;;;;5041713;28;48610;-79
2024/01/28 10:33:19;;;;;;;;;16.67;14.67;;;;;;;;5059903;28;45297;-78
2024/01/28 10:35:45;;;;;;;;;15.00;14.00;;;;;;;;5042963;28;45482;-77
2024/01/28 10:38:15;;;;;;;;;13.00;12.00;;;;;;;;5045153;28;46134;-78
2024/01/28 10:40:43;;;;;;;;;14.33;14.00;;;;;;;;5047693;28;47450;-78
2024/01/28 10:43:11;;;;;;;;;14.00;14.00;;;;;;;;5070048;28;45320;-78
2024/01/28 10:45:37;;;;;;;;;16.33;15.33;;;;;;;;5049933;28;45399;-78
2024/01/28 10:48:05;;;;;;;;;14.00;13.33;;;;;;;;5069873;28;45501;-79
2024/01/28 10:50:32;;;;;;;;;14.00;14.00;;;;;;;;5046994;28;48792;-79
2024/01/28 10:52:58;;;;;;;;;16.00;13.33;;;;;;;;5069433;27;45384;-79
2024/01/28 10:55:24;;;;;;;;;16.33;16.00;;;;;;;;5066253;28;45399;-80
2024/01/28 10:57:50;;;;;;;;;15.67;15.67;;;;;;;;5046897;28;45648;-79
2024/01/28 11:00:20;;;;;;;;;16.67;16.67;;;;;;;;5041105;28;45456;-79
2024/01/28 11:02:45;;;;;;;;;15.67;15.67;;;;;;;;5021632;28;45603;-78
2024/01/28 11:05:11;;;;;;;;;15.67;15.00;;;;;;;;5022637;28;45335;-79
2024/01/28 11:07:36;;;;;;;;;20.00;17.33;;;;;;;;5022765;28;47110;-78
2024/01/28 11:10:04;;;;;;;;;13.33;13.00;;;;;;;;5022547;28;47247;-78
2024/01/28 11:12:29;;;;;;;;;14.67;13.67;;;;;;;;5041421;28;45409;-80
2024/01/28 11:14:58;;;;;;;;;14.00;14.00;;;;;;;;5040374;28;45281;-78
2024/01/28 11:17:33;;;;;;;;;19.00;16.00;;;;;;;;5023070;28;47028;-78
2024/01/28 11:20:08;;;;;;;;;17.67;16.67;;;;;;;;5022828;28;47278;-79
2024/01/28 11:22:47;;;;;;;;;16.00;15.00;;;;;;;;5058121;28;45750;-79
2024/01/28 11:25:15;;;;;;;;;13.67;13.67;;;;;;;;5061036;28;45319;-79
2024/01/28 11:27:41;;;;;;;;;12.67;12.67;;;;;;;;5043993;28;47446;-79
2024/01/28 11:30:09;;;;;;;;;15.67;12.33;;;;;;;;5061438;28;46007;-80
2024/01/28 11:32:34;;;;;;;;;14.00;12.67;;;;;;;;5063650;28;45340;-78
2024/01/28 11:34:59;;;;;;;;;13.00;13.00;;;;;;;;5061465;28;45252;-78
2024/01/28 11:37:26;;;;;;;;;15.33;12.67;;;;;;;;5062963;28;45417;-79
2024/01/28 11:39:54;;;;;;;;;14.67;12.33;;;;;;;;5063620;28;45335;-77
2024/01/28 11:42:19;;;;;;;;;12.00;12.00;;;;;;;;5042189;28;45707;-78
2024/01/28 11:44:44;;;;;;;;;16.00;11.67;;;;;;;;5042807;28;45296;-78
2024/01/28 11:47:13;;;;;;;;;14.67;14.67;;;;;;;;5059876;28;45609;-78
2024/01/28 11:49:38;;;;;;;;;13.67;11.33;;;;;;;;5058529;28;46136;-78
2024/01/28 11:52:05;;;;;;;;;14.33;12.67;;;;;;;;5062850;28;46511;-79
2024/01/28 11:54:30;;;;;;;;;13.33;13.33;;;;;;;;5046117;28;45353;-78
2024/01/28 11:56:56;;;;;;;;;12.67;12.33;;;;;;;;5035816;28;46185;-78
2024/01/28 11:59:22;;;;;;;;;21.00;18.33;;;;;;;;5049352;28;46353;-78
2024/01/28 12:01:47;;;;;;;;;18.00;15.33;;;;;;;;5033432;28;46153;-78
2024/01/28 12:04:13;;;;;;;;;13.67;12.33;;;;;;;;5031960;28;45634;-78
2024/01/28 12:06:41;;;;;;;;;15.33;14.33;;;;;;;;5038372;28;47211;-78
2024/01/28 12:09:06;;;;;;;;;11.67;11.00;;;;;;;;5038408;28;47786;-78
2024/01/28 12:11:32;;;;;;;;;15.00;13.33;;;;;;;;5057469;28;45475;-79
2024/01/28 12:13:57;;;;;;;;;19.00;18.67;;;;;;;;5040517;28;45472;-78
2024/01/28 12:16:23;;;;;;;;;54.00;45.00;;;;;;;;5042452;28;45448;-79
2024/01/28 12:18:48;;;;;;;;;17.00;14.33;;;;;;;;5041346;28;46386;-80
2024/01/28 12:21:17;;;;;;;;;12.33;12.00;;;;;;;;5048594;28;45465;-80
2024/01/28 12:23:53;;;;;;;;;12.67;10.67;;;;;;;;5039871;28;45359;-81
2024/01/28 12:26:19;;;;;;;;;16.33;12.33;;;;;;;;5056254;28;45538;-79
2024/01/28 12:28:48;;;;;;;;;17.00;14.33;;;;;;;;5056326;28;46268;-78
2024/01/28 12:31:13;;;;;;;;;12.00;12.00;;;;;;;;5053414;28;45399;-79
2024/01/28 12:33:38;;;;;;;;;12.67;11.67;;;;;;;;5052066;28;45336;-77
2024/01/28 12:36:04;;;;;;;;;15.67;15.67;;;;;;;;5042696;28;46074;-77
2024/01/28 12:38:29;;;;;;;;;12.00;12.00;;;;;;;;5044478;28;46128;-77
2024/01/28 12:40:54;;;;;;;;;12.67;11.33;;;;;;;;5057843;28;45477;-77
2024/01/28 12:43:20;;;;;;;;;15.00;13.67;;;;;;;;5055965;28;45390;-77
2024/01/28 12:45:45;;;;;;;;;11.67;11.67;;;;;;;;5057687;28;45576;-75
2024/01/28 12:48:10;;;;;;;;;10.00;9.67;;;;;;;;5057074;28;46056;-75
2024/01/28 12:50:35;;;;;;;;;12.67;10.67;;;;;;;;5040046;28;45292;-77
2024/01/28 12:53:00;;;;;;;;;13.00;13.00;;;;;;;;5039465;28;45445;-77
2024/01/28 12:55:26;;;;;;;;;14.33;12.67;;;;;;;;5058151;28;45256;-77
2024/01/28 12:57:51;;;;;;;;;11.00;10.00;;;;;;;;5057363;28;45500;-77
2024/01/28 13:00:17;;;;;;;;;15.33;13.33;;;;;;;;5056812;28;45599;-76
2024/01/28 13:02:43;;;;;;;;;12.00;12.00;;;;;;;;5035688;28;45197;-77
2024/01/28 13:05:10;;;;;;;;;14.00;13.00;;;;;;;;5037499;28;45368;-77
2024/01/28 13:07:35;;;;;;;;;13.33;12.00;;;;;;;;5037286;28;47294;-77
2024/01/28 13:10:00;;;;;;;;;12.00;12.00;;;;;;;;5053502;28;45391;-77
2024/01/28 13:12:31;;;;;;;;;12.33;12.33;;;;;;;;5057856;28;45408;-77
2024/01/28 13:14:56;;;;;;;;;13.00;12.33;;;;;;;;5057503;28;45696;-77
2024/01/28 13:17:22;;;;;;;;;12.67;12.00;;;;;;;;5056955;28;45334;-77
2024/01/28 13:19:50;;;;;;;;;13.00;12.00;;;;;;;;5057598;28;45286;-77
2024/01/28 13:22:15;;;;;;;;;12.67;11.33;;;;;;;;5057442;28;45455;-74
2024/01/28 13:24:40;;;;;;;;;12.67;12.67;;;;;;;;5072370;28;45382;-77
2024/01/28 13:27:05;;;;;;;;;11.00;10.33;;;;;;;;5080785;28;45454;-77
2024/01/28 13:29:35;;;;;;;;;11.67;11.67;;;;;;;;5082229;28;45287;-77
2024/01/28 13:32:00;;;;;;;;;13.00;13.00;;;;;;;;5064578;28;45312;-78
2024/01/28 13:34:25;;;;;;;;;15.00;14.00;;;;;;;;5082146;28;45191;-77
2024/01/28 13:36:51;;;;;;;;;12.67;11.00;;;;;;;;5082574;28;46454;-75
2024/01/28 13:39:16;;;;;;;;;13.67;12.67;;;;;;;;5082450;28;45173;-77
2024/01/28 13:41:41;;;;;;;;;10.67;9.00;;;;;;;;5071548;28;45419;-77
2024/01/28 13:44:06;;;;;;;;;13.67;12.33;;;;;;;;5043690;28;45957;-77
2024/01/28 13:46:31;;;;;;;;;13.00;12.00;;;;;;;;5061626;28;46247;-78
2024/01/28 13:48:57;;;;;;;;;12.67;10.67;;;;;;;;5061120;28;45232;-76
2024/01/28 13:51:23;;;;;;;;;12.33;12.33;;;;;;;;5061889;28;45279;-77
2024/01/28 13:53:48;;;;;;;;;14.67;14.33;;;;;;;;5061266;28;45410;-77
2024/01/28 13:56:14;;;;;;;;;16.00;14.33;;;;;;;;5053517;28;46201;-77
2024/01/28 13:58:39;;;;;;;;;18.67;17.67;;;;;;;;5032878;28;45709;-76
2024/01/28 14:01:04;;;;;;;;;15.33;14.33;;;;;;;;5049252;28;45243;-76
2024/01/28 14:03:29;;;;;;;;;15.67;14.00;;;;;;;;5044678;28;45221;-77
2024/01/28 14:05:54;;;;;;;;;11.00;11.00;;;;;;;;5053676;28;45584;-77
2024/01/28 14:08:21;;;;;;;;;12.00;12.00;;;;;;;;5066465;28;45301;-78